createdAt,value
2019-04-16T00:00:06.295Z,20.10
2019-04-16T00:02:59.415Z,16.27
2019-04-16T00:05:37.664Z,15.70
2019-04-16T00:08:27.365Z,16.37
2019-04-16T00:10:58.327Z,14.87
2019-04-16T00:13:47.195Z,14.93
2019-04-16T00:16:18.739Z,17.53
2019-04-16T00:18:57.128Z,14.70
2019-04-16T00:21:33.092Z,18.40
2019-04-16T00:24:26.401Z,17.33
2019-04-16T00:26:59.312Z,21.47
2019-04-16T00:29:33.059Z,16.87
2019-04-16T00:32:09.778Z,15.43
2019-04-16T00:34:44.767Z,16.07
2019-04-16T00:37:20.434Z,16.73
2019-04-16T00:39:55.559Z,18.23
2019-04-16T00:42:23.986Z,15.87
2019-04-16T00:44:55.640Z,17.40
2019-04-16T00:47:26.991Z,20.43
2019-04-16T00:49:59.614Z,19.53
2019-04-16T00:52:31.643Z,15.57
2019-04-16T00:55:03.904Z,16.57
2019-04-16T00:57:35.174Z,14.30
2019-04-16T01:00:08.085Z,13.97
2019-04-16T01:02:39.427Z,16.63
2019-04-16T01:05:11.083Z,17.40
2019-04-16T01:07:44.635Z,15.10
2019-04-16T01:10:15.924Z,16.03
2019-04-16T01:12:48.278Z,14.37
2019-04-16T01:15:19.998Z,17.70
2019-04-16T01:17:55.437Z,15.90
2019-04-16T01:20:28.409Z,15.40
2019-04-16T01:23:00.700Z,15.63
2019-04-16T01:25:32.222Z,17.23
2019-04-16T01:28:06.730Z,18.27
2019-04-16T01:30:59.982Z,18.40
2019-04-16T01:33:50.358Z,14.13
2019-04-16T01:36:33.253Z,16.17
2019-04-16T01:39:17.594Z,14.60
2019-04-16T01:41:40.588Z,16.60
2019-04-16T01:44:12.424Z,16.17
2019-04-16T01:46:43.815Z,16.77
2019-04-16T01:49:15.444Z,17.87
2019-04-16T01:51:47.398Z,14.83
2019-04-16T01:54:22.510Z,16.57
2019-04-16T01:56:52.934Z,18.47
2019-04-16T01:59:24.387Z,16.13
2019-04-16T02:01:55.877Z,16.60
2019-04-16T02:04:27.559Z,15.10
2019-04-16T02:06:59.056Z,18.47
2019-04-16T02:09:34.189Z,16.53
2019-04-16T02:12:03.917Z,17.33
2019-04-16T02:14:35.199Z,16.20
2019-04-16T02:17:06.498Z,19.40
2019-04-16T02:19:38.892Z,17.70
2019-04-16T02:22:12.619Z,17.47
2019-04-16T02:24:47.879Z,18.80
2019-04-16T02:27:18.531Z,15.47
2019-04-16T02:29:49.878Z,16.33
2019-04-16T02:32:21.328Z,16.40
2019-04-16T02:34:55.638Z,17.57
2019-04-16T02:37:27.439Z,17.87
2019-04-16T02:39:58.770Z,16.87
2019-04-16T02:42:31.970Z,18.80
2019-04-16T02:45:03.387Z,17.83
2019-04-16T02:47:40.035Z,16.10
2019-04-16T02:50:10.655Z,16.50
2019-04-16T02:52:52.379Z,16.93
2019-04-16T02:55:45.405Z,16.13
2019-04-16T02:58:34.013Z,16.83
2019-04-16T03:01:26.015Z,15.73
2019-04-16T03:04:02.814Z,14.73
2019-04-16T03:06:34.618Z,17.80
2019-04-16T03:09:09.197Z,15.87
2019-04-16T03:11:41.319Z,17.23
2019-04-16T03:14:12.777Z,16.83
2019-04-16T03:17:10.219Z,15.70
2019-04-16T03:19:41.784Z,16.87
2019-04-16T03:22:13.185Z,17.87
2019-04-16T03:24:44.959Z,15.67
2019-04-16T03:27:16.546Z,14.97
2019-04-16T03:29:47.832Z,14.87
2019-04-16T03:32:19.711Z,18.43
2019-04-16T03:34:53.348Z,16.37
2019-04-16T03:37:24.215Z,15.40
2019-04-16T03:39:55.704Z,17.10
2019-04-16T03:42:28.146Z,15.93
2019-04-16T03:44:59.453Z,16.30
2019-04-16T03:47:31.186Z,16.67
2019-04-16T03:50:02.590Z,14.80
2019-04-16T03:52:37.429Z,13.57
2019-04-16T03:55:10.022Z,15.00
2019-04-16T03:57:41.442Z,18.57
2019-04-16T04:00:13.200Z,16.37
2019-04-16T04:02:45.099Z,15.87
2019-04-16T04:05:16.773Z,14.43
2019-04-16T04:07:48.130Z,14.83
2019-04-16T04:10:30.329Z,17.37
2019-04-16T04:12:52.720Z,19.17
2019-04-16T04:15:26.349Z,14.63
2019-04-16T04:17:57.407Z,15.40
2019-04-16T04:20:28.668Z,16.47
2019-04-16T04:23:02.096Z,15.93
2019-04-16T04:25:35.962Z,15.10
2019-04-16T04:28:06.631Z,15.67
2019-04-16T04:30:40.275Z,18.20
2019-04-16T04:33:14.156Z,15.63
2019-04-16T04:35:45.500Z,16.27
2019-04-16T04:38:16.838Z,19.07
2019-04-16T04:40:50.828Z,16.80
2019-04-16T04:43:21.541Z,15.20
2019-04-16T04:45:53.345Z,16.70
2019-04-16T04:48:25.357Z,16.50
2019-04-16T04:50:58.451Z,16.20
2019-04-16T04:53:30.521Z,17.20
2019-04-16T04:56:02.165Z,14.47
2019-04-16T04:58:34.880Z,17.37
2019-04-16T05:01:06.611Z,17.03
2019-04-16T05:04:02.402Z,15.97
2019-04-16T05:06:36.256Z,18.87
2019-04-16T05:09:08.447Z,13.70
2019-04-16T05:11:39.982Z,15.40
2019-04-16T05:14:11.310Z,15.93
2019-04-16T05:16:42.612Z,16.50
2019-04-16T05:19:15.516Z,14.57
2019-04-16T05:21:50.153Z,14.03
2019-04-16T05:24:21.594Z,14.07
2019-04-16T05:26:56.253Z,15.03
2019-04-16T05:29:26.581Z,15.93
2019-04-16T05:31:58.391Z,13.67
2019-04-16T05:34:30.037Z,14.60
2019-04-16T05:37:04.867Z,13.93
2019-04-16T05:39:36.383Z,16.50
2019-04-16T05:42:07.817Z,14.90
2019-04-16T05:44:39.294Z,16.10
2019-04-16T05:47:16.755Z,14.80
2019-04-16T05:49:46.413Z,14.07
2019-04-16T05:52:17.895Z,14.17
2019-04-16T05:55:17.466Z,16.37
2019-04-16T05:57:47.495Z,16.93
2019-04-16T06:00:42.310Z,17.13
2019-04-16T06:03:13.764Z,14.00
2019-04-16T06:05:45.226Z,15.80
2019-04-16T06:08:17.082Z,13.90
2019-04-16T06:10:51.089Z,13.90
2019-04-16T06:13:30.446Z,13.30
2019-04-16T06:16:14.762Z,15.40
2019-04-16T06:19:03.719Z,15.33
2019-04-16T06:21:48.286Z,15.27
2019-04-16T06:24:40.037Z,14.20
2019-04-16T06:27:31.170Z,13.70
2019-04-16T06:30:25.304Z,17.93
2019-04-16T06:33:04.743Z,13.30
2019-04-16T06:36:01.183Z,15.40
2019-04-16T06:38:57.375Z,15.07
2019-04-16T06:42:00.214Z,14.40
2019-04-16T06:44:35.058Z,18.13
2019-04-16T06:47:34.630Z,14.10
2019-04-16T06:50:43.723Z,13.67
2019-04-16T06:53:34.062Z,13.97
2019-04-16T06:56:33.315Z,16.67
2019-04-16T06:59:17.148Z,17.43
2019-04-16T07:02:18.134Z,14.90
2019-04-16T07:05:14.088Z,14.43
2019-04-16T07:08:05.403Z,16.97
2019-04-16T07:10:45.014Z,17.40
2019-04-16T07:13:16.460Z,15.23
2019-04-16T07:15:47.937Z,17.87
2019-04-16T07:18:21.273Z,21.70
2019-04-16T07:20:52.868Z,17.37
2019-04-16T07:23:26.025Z,18.47
2019-04-16T07:25:57.519Z,19.07
2019-04-16T07:28:34.221Z,20.83
2019-04-16T07:31:33.477Z,22.03
2019-04-16T07:34:24.166Z,19.73
2019-04-16T07:37:15.010Z,21.40
2019-04-16T07:40:00.219Z,21.50
2019-04-16T07:42:51.178Z,21.47
2019-04-16T07:45:50.482Z,20.07
2019-04-16T07:48:42.255Z,22.20
2019-04-16T07:51:21.977Z,23.50
2019-04-16T07:54:13.327Z,22.30
2019-04-16T07:56:47.731Z,20.00
2019-04-16T07:59:20.841Z,20.03
2019-04-16T08:01:52.159Z,25.40
2019-04-16T08:04:29.065Z,26.83
2019-04-16T08:06:57.060Z,28.03
2019-04-16T08:09:29.949Z,25.23
2019-04-16T08:12:01.583Z,31.67
2019-04-16T08:14:33.353Z,31.83
2019-04-16T08:17:05.957Z,25.33
2019-04-16T08:19:37.865Z,36.57
2019-04-16T08:22:15.502Z,34.03
2019-04-16T08:24:48.009Z,28.10
2019-04-16T08:27:19.704Z,29.20
2019-04-16T08:29:51.107Z,21.77
2019-04-16T08:32:25.638Z,29.80
2019-04-16T08:34:55.924Z,28.73
2019-04-16T08:37:27.680Z,31.10
2019-04-16T08:39:59.366Z,30.12
2019-04-16T08:42:43.848Z,28.57
2019-04-16T08:45:08.439Z,30.68
2019-04-16T08:47:44.541Z,18.67
2019-04-16T08:50:14.294Z,21.73
2019-04-16T08:52:46.036Z,17.83
2019-04-16T08:55:20.457Z,17.83
2019-04-16T08:57:51.338Z,18.77
2019-04-16T09:00:22.790Z,15.83
2019-04-16T09:02:57.736Z,18.33
2019-04-16T09:05:27.262Z,17.30
2019-04-16T09:08:12.867Z,17.97
2019-04-16T09:10:40.808Z,16.63
2019-04-16T09:13:15.238Z,19.40
2019-04-16T09:15:49.027Z,19.70
2019-04-16T09:18:26.996Z,19.47
2019-04-16T09:20:58.330Z,18.80
2019-04-16T09:23:30.174Z,20.97
2019-04-16T09:26:23.555Z,20.43
2019-04-16T09:29:22.630Z,18.13
2019-04-16T09:32:03.702Z,19.10
2019-04-16T09:35:10.150Z,19.63
2019-04-16T09:37:54.604Z,19.07
2019-04-16T09:40:44.216Z,19.13
2019-04-16T09:43:19.809Z,27.93
2019-04-16T09:45:52.513Z,18.80
2019-04-16T09:48:24.074Z,19.43
2019-04-16T09:50:55.948Z,21.83
2019-04-16T09:53:33.938Z,20.67
2019-04-16T09:56:02.113Z,18.63
2019-04-16T09:58:34.924Z,20.57
2019-04-16T10:01:09.249Z,23.23
2019-04-16T10:03:41.524Z,23.90
2019-04-16T10:06:13.597Z,25.90
2019-04-16T10:08:46.680Z,26.83
2019-04-16T10:11:19.006Z,25.10
2019-04-16T10:13:51.022Z,31.83
2019-04-16T10:16:24.044Z,24.03
2019-04-16T10:18:55.471Z,26.97
2019-04-16T10:21:29.101Z,26.83
2019-04-16T10:24:25.433Z,26.13
2019-04-16T10:26:59.987Z,31.17
2019-04-16T10:29:30.716Z,26.87
2019-04-16T10:32:02.316Z,27.77
2019-04-16T10:34:36.311Z,23.87
2019-04-16T10:37:07.890Z,22.80
2019-04-16T10:40:05.045Z,23.13
2019-04-16T10:42:56.019Z,24.47
2019-04-16T10:45:52.293Z,21.73
2019-04-16T10:48:45.663Z,26.63
2019-04-16T10:51:34.196Z,21.87
2019-04-16T10:54:13.964Z,21.63
2019-04-16T10:57:10.708Z,23.53
2019-04-16T11:00:06.713Z,21.73
2019-04-16T11:02:50.759Z,24.17
2019-04-16T11:05:42.265Z,50.93
2019-04-16T11:08:15.335Z,23.17
2019-04-16T11:10:46.811Z,22.97
2019-04-16T11:13:33.161Z,26.63
2019-04-16T11:16:10.291Z,26.27
2019-04-16T11:18:41.772Z,28.07
2019-04-16T11:21:13.599Z,29.67
2019-04-16T11:23:45.193Z,28.30
2019-04-16T11:26:16.699Z,25.90
2019-04-16T11:28:48.695Z,25.57
2019-04-16T11:31:21.849Z,29.73
2019-04-16T11:33:53.267Z,27.60
2019-04-16T11:36:24.718Z,29.60
2019-04-16T11:38:56.391Z,34.37
2019-04-16T11:41:28.155Z,26.27
2019-04-16T11:44:13.549Z,28.60
2019-04-16T11:46:32.662Z,26.07
2019-04-16T11:49:04.395Z,24.17
2019-04-16T11:51:35.971Z,27.77
2019-04-16T11:54:11.127Z,28.73
2019-04-16T11:56:41.978Z,31.50
2019-04-16T11:59:13.694Z,26.53
2019-04-16T12:01:53.202Z,23.13
2019-04-16T12:04:47.463Z,22.77
2019-04-16T12:07:38.462Z,23.47
2019-04-16T12:10:32.875Z,22.03
2019-04-16T12:13:26.792Z,24.30
2019-04-16T12:16:17.231Z,25.83
2019-04-16T12:19:32.835Z,29.67
2019-04-16T12:22:15.716Z,24.60
2019-04-16T12:25:06.252Z,24.03
2019-04-16T12:27:56.775Z,25.87
2019-04-16T12:30:50.199Z,22.90
2019-04-16T12:33:32.236Z,24.03
2019-04-16T12:36:18.599Z,24.70
2019-04-16T12:39:07.363Z,20.10
2019-04-16T12:42:14.698Z,21.23
2019-04-16T12:44:54.803Z,21.90
2019-04-16T12:47:32.609Z,21.70
2019-04-16T12:50:22.197Z,20.67
2019-04-16T12:53:07.898Z,21.77
2019-04-16T12:55:58.742Z,20.07
2019-04-16T12:58:44.047Z,18.70
2019-04-16T13:01:19.995Z,19.67
2019-04-16T13:04:01.766Z,19.23
2019-04-16T13:06:47.415Z,19.50
2019-04-16T13:09:36.672Z,20.63
2019-04-16T13:12:36.782Z,20.77
2019-04-16T13:15:30.691Z,18.73
2019-04-16T13:18:11.189Z,20.77
2019-04-16T13:21:05.176Z,22.73
2019-04-16T13:23:48.057Z,20.20
2019-04-16T13:26:26.240Z,20.47
2019-04-16T13:28:58.166Z,19.53
2019-04-16T13:31:29.620Z,20.40
2019-04-16T13:34:01.339Z,23.77
2019-04-16T13:36:34.615Z,22.30
2019-04-16T13:39:23.431Z,22.87
2019-04-16T13:41:55.437Z,21.00
2019-04-16T13:44:29.930Z,23.07
2019-04-16T13:47:03.472Z,20.97
2019-04-16T13:49:52.336Z,21.53
2019-04-16T13:52:25.454Z,20.40
2019-04-16T13:55:19.830Z,21.97
2019-04-16T13:58:00.296Z,23.77
2019-04-16T14:00:37.448Z,21.27
2019-04-16T14:03:11.820Z,20.03
2019-04-16T14:05:45.074Z,20.47
2019-04-16T14:08:17.163Z,21.73
2019-04-16T14:10:48.531Z,27.50
2019-04-16T14:13:19.910Z,24.50
2019-04-16T14:15:52.405Z,20.63
2019-04-16T14:18:24.397Z,20.20
2019-04-16T14:20:55.935Z,22.47
2019-04-16T14:23:27.614Z,24.40
2019-04-16T14:26:00.729Z,24.07
2019-04-16T14:28:34.630Z,20.63
2019-04-16T14:31:06.039Z,21.77
2019-04-16T14:33:55.004Z,20.20
2019-04-16T14:36:27.662Z,20.30
2019-04-16T14:39:07.030Z,20.63
2019-04-16T14:41:36.258Z,21.57
2019-04-16T14:44:11.333Z,21.57
2019-04-16T14:46:44.504Z,20.30
2019-04-16T14:49:18.399Z,21.10
2019-04-16T14:51:50.261Z,22.10
2019-04-16T14:54:28.953Z,23.33
2019-04-16T14:57:00.714Z,21.00
2019-04-16T14:59:40.826Z,21.17
2019-04-16T15:02:34.251Z,19.47
2019-04-16T15:05:32.637Z,21.37
2019-04-16T15:08:26.590Z,19.30
2019-04-16T15:11:13.685Z,19.63
2019-04-16T15:13:59.189Z,19.60
2019-04-16T15:16:44.854Z,22.00
2019-04-16T15:19:36.625Z,20.80
2019-04-16T15:22:37.733Z,20.60
2019-04-16T15:25:26.327Z,20.10
2019-04-16T15:28:13.118Z,20.30
2019-04-16T15:31:02.675Z,21.77
2019-04-16T15:33:54.109Z,17.37
2019-04-16T15:36:32.109Z,19.27
2019-04-16T15:39:20.211Z,17.43
2019-04-16T15:42:20.031Z,17.33
2019-04-16T15:45:20.167Z,16.37
2019-04-16T15:48:28.282Z,15.73
2019-04-16T15:51:27.523Z,18.50
2019-04-16T15:54:06.641Z,15.20
2019-04-16T15:56:55.273Z,16.33
2019-04-16T15:59:41.100Z,14.47
2019-04-16T16:02:30.386Z,16.80
2019-04-16T16:05:09.885Z,15.27
2019-04-16T16:08:03.597Z,15.53
2019-04-16T16:10:45.140Z,16.57
2019-04-16T16:13:14.295Z,17.10
2019-04-16T16:15:45.843Z,18.67
2019-04-16T16:18:19.105Z,18.20
2019-04-16T16:20:50.987Z,17.60
2019-04-16T16:23:22.762Z,19.27
2019-04-16T16:25:54.350Z,17.63
2019-04-16T16:28:27.210Z,19.97
2019-04-16T16:30:58.667Z,20.13
2019-04-16T16:33:31.001Z,20.40
2019-04-16T16:36:02.330Z,19.03
2019-04-16T16:38:35.229Z,19.27
2019-04-16T16:41:07.563Z,19.20
2019-04-16T16:43:40.052Z,19.90
2019-04-16T16:46:33.431Z,18.00
2019-04-16T16:49:07.127Z,18.80
2019-04-16T16:51:41.140Z,19.63
2019-04-16T16:54:20.194Z,19.07
2019-04-16T16:57:08.160Z,19.13
2019-04-16T16:59:45.449Z,19.90
2019-04-16T17:02:51.212Z,18.90
2019-04-16T17:05:48.359Z,19.13
2019-04-16T17:08:27.059Z,19.00
2019-04-16T17:11:14.661Z,18.07
2019-04-16T17:13:35.662Z,18.83
2019-04-16T17:16:06.996Z,18.47
2019-04-16T17:18:39.098Z,18.77
2019-04-16T17:21:10.928Z,19.17
2019-04-16T17:23:43.805Z,19.87
2019-04-16T17:26:22.713Z,18.30
2019-04-16T17:28:54.003Z,18.37
2019-04-16T17:31:25.552Z,22.97
2019-04-16T17:33:57.490Z,19.37
2019-04-16T17:36:29.906Z,19.30
2019-04-16T17:39:01.821Z,21.80
2019-04-16T17:41:39.955Z,20.03
2019-04-16T17:44:36.988Z,19.03
2019-04-16T17:47:31.334Z,20.43
2019-04-16T17:49:54.781Z,19.43
2019-04-16T17:52:57.947Z,21.67
2019-04-16T17:55:42.747Z,19.67
2019-04-16T17:58:24.165Z,20.30
2019-04-16T18:01:35.897Z,20.00
2019-04-16T18:04:26.174Z,20.77
2019-04-16T18:07:23.125Z,19.53
2019-04-16T18:10:13.721Z,24.50
2019-04-16T18:12:57.185Z,20.07
2019-04-16T18:15:52.499Z,22.70
2019-04-16T18:18:32.718Z,22.57
2019-04-16T18:21:26.948Z,21.87
2019-04-16T18:24:29.401Z,19.73
2019-04-16T18:27:29.424Z,20.47
2019-04-16T18:33:37.120Z,21.17
2019-04-16T18:36:21.732Z,26.60
2019-04-16T18:39:19.066Z,21.73
2019-04-16T18:42:21.873Z,22.60
2019-04-16T18:45:23.367Z,23.07
2019-04-16T18:48:04.814Z,22.70
2019-04-16T18:50:33.777Z,21.87
2019-04-16T18:53:09.596Z,22.30
2019-04-16T18:55:38.725Z,22.57
2019-04-16T18:58:10.302Z,25.43
2019-04-16T19:00:44.907Z,26.63
2019-04-16T19:03:16.250Z,24.87
2019-04-16T19:05:48.115Z,23.40
2019-04-16T19:08:19.576Z,26.30
2019-04-16T19:10:51.777Z,26.90
2019-04-16T19:13:23.112Z,26.40
2019-04-16T19:15:54.764Z,26.27
2019-04-16T19:18:26.256Z,28.40
2019-04-16T19:20:57.778Z,29.00
2019-04-16T19:23:37.767Z,27.23
2019-04-16T19:26:09.136Z,30.73
2019-04-16T19:28:45.503Z,25.50
2019-04-16T19:31:22.735Z,27.13
2019-04-16T19:34:10.995Z,26.97
2019-04-16T19:36:43.391Z,25.40
2019-04-16T19:39:15.936Z,25.70
2019-04-16T19:41:47.718Z,28.30
2019-04-16T19:44:19.475Z,25.37
2019-04-16T19:46:53.947Z,27.33
2019-04-16T19:49:26.036Z,26.80
2019-04-16T19:51:57.569Z,28.10
2019-04-16T19:54:31.661Z,27.30
2019-04-16T19:57:02.026Z,27.33
2019-04-16T19:59:34.114Z,27.50
2019-04-16T20:02:07.119Z,29.63
2019-04-16T20:04:41.339Z,27.47
2019-04-16T20:07:11.611Z,28.07
2019-04-16T20:09:43.053Z,27.90
2019-04-16T20:12:15.757Z,27.97
2019-04-16T20:14:51.316Z,27.60
2019-04-16T20:17:23.288Z,31.73
2019-04-16T20:20:02.913Z,27.90
2019-04-16T20:22:34.395Z,28.53
2019-04-16T20:25:06.309Z,30.33
2019-04-16T20:27:40.578Z,28.07
2019-04-16T20:30:14.787Z,27.87
2019-04-16T20:32:46.222Z,27.77
2019-04-16T20:35:19.119Z,30.57
2019-04-16T20:37:54.345Z,29.00
2019-04-16T20:40:23.639Z,30.10
2019-04-16T20:42:55.372Z,28.13
2019-04-16T20:45:26.823Z,28.23
2019-04-16T20:47:58.445Z,30.07
2019-04-16T20:50:29.765Z,29.27
2019-04-16T20:53:06.143Z,29.87
2019-04-16T20:55:34.081Z,29.47
2019-04-16T20:58:05.524Z,31.50
2019-04-16T21:00:42.247Z,29.90
2019-04-16T21:03:21.939Z,30.33
2019-04-16T21:05:57.317Z,31.33
2019-04-16T21:08:24.298Z,27.90
2019-04-16T21:10:51.427Z,28.50
2019-04-16T21:13:23.407Z,27.70
2019-04-16T21:15:57.195Z,27.97
2019-04-16T21:18:28.423Z,28.97
2019-04-16T21:20:59.908Z,27.03
2019-04-16T21:23:31.903Z,25.77
2019-04-16T21:26:04.891Z,26.20
2019-04-16T21:28:48.732Z,25.23
2019-04-16T21:31:25.740Z,23.10
2019-04-16T21:34:16.238Z,23.63
2019-04-16T21:36:57.533Z,24.73
2019-04-16T21:39:40.293Z,24.13
2019-04-16T21:42:11.611Z,24.73
2019-04-16T21:44:44.635Z,22.47
2019-04-16T21:47:17.347Z,23.57
2019-04-16T21:49:49.441Z,23.23
2019-04-16T21:52:23.277Z,23.63
2019-04-16T21:54:55.541Z,22.27
2019-04-16T21:57:27.216Z,21.40
2019-04-16T21:59:59.861Z,21.50
2019-04-16T22:02:37.972Z,20.77
2019-04-16T22:05:10.250Z,20.90
2019-04-16T22:07:41.809Z,21.07
2019-04-16T22:10:13.903Z,21.40
2019-04-16T22:12:47.617Z,21.10
2019-04-16T22:15:25.165Z,21.43
2019-04-16T22:17:53.801Z,20.93
2019-04-16T22:20:26.280Z,20.27
2019-04-16T22:22:57.923Z,21.60
2019-04-16T22:25:29.167Z,21.90
2019-04-16T22:28:01.733Z,22.00
2019-04-16T22:30:34.629Z,20.43
2019-04-16T22:33:07.751Z,21.20
2019-04-16T22:35:40.049Z,20.80
2019-04-16T22:38:14.273Z,22.53
2019-04-16T22:41:04.850Z,21.27
2019-04-16T22:44:01.217Z,21.43
2019-04-16T22:46:37.859Z,21.73
2019-04-16T22:49:09.099Z,21.37
2019-04-16T22:51:43.119Z,22.43
2019-04-16T22:54:17.584Z,22.77
2019-04-16T22:57:02.799Z,21.83
2019-04-16T22:59:39.006Z,21.77
2019-04-16T23:02:18.234Z,24.60
2019-04-16T23:04:51.227Z,23.20
2019-04-16T23:07:22.505Z,22.63
2019-04-16T23:09:54.191Z,23.47
2019-04-16T23:12:28.167Z,23.90
2019-04-16T23:14:58.584Z,26.03
2019-04-16T23:17:29.952Z,24.67
2019-04-16T23:20:01.747Z,24.20
2019-04-16T23:22:33.176Z,23.70
2019-04-16T23:25:04.958Z,25.17
2019-04-16T23:27:38.230Z,25.03
2019-04-16T23:30:10.871Z,24.20
2019-04-16T23:32:42.136Z,25.50
2019-04-16T23:35:13.978Z,27.03
2019-04-16T23:37:45.794Z,25.77
2019-04-16T23:40:17.173Z,25.53
2019-04-16T23:43:06.131Z,26.90
2019-04-16T23:45:56.462Z,26.73
2019-04-16T23:48:35.046Z,26.93
2019-04-16T23:51:10.688Z,28.13
2019-04-16T23:54:01.138Z,26.50
2019-04-16T23:56:44.251Z,28.07
2019-04-16T23:59:35.953Z,28.27
